Davenport, WA

11:51 AM PDT on August 30, 2016 (GMT -0700)
Harrington Golf & CC 5th Tee Box | | Change Station

Elev 2247 ft 47.47 °N, 118.25 °W | Updated 30 minutes ago

Mostly Cloudy
Mostly Cloudy
81.0 °F
Feels Like 80 °F
N
2.0
Wind Variable Wind from East
Gusts 2.5 mph

Today
High -- | Low -- °F
--% Chance of Precip.
Yesterday
High -- | Low -- °F
Precip. -- in
Pressure 29.94 in
Visibility 10.0 miles
Clouds Scattered Clouds 16000 ft
Mostly Cloudy 19000 ft
Heat Index 80 °F
Dew Point 44 °F
Humidity 27%
Rainfall 0.00 in
Snow Depth Not available.
6:09 AM 7:35 PM
Waning Crescent, 3% visible
METAR KSKA 301758Z AUTO 06006KT 10SM SCT160 BKN190 24/06 A2997 RMK AO2 SLP137 T02430063 10243 20125 55000
Pressure 29.94 in
Visibility 10.0 miles
Clouds Scattered Clouds 16000 ft
Mostly Cloudy 19000 ft
Heat Index 80 °F
Dew Point 44 °F
Humidity 27%
Rainfall 0.00 in
Snow Depth Not available.
6:09 AM 7:35 PM
Waning Crescent, 3% visible
METAR KSKA 301758Z AUTO 06006KT 10SM SCT160 BKN190 24/06 A2997 RMK AO2 SLP137 T02430063 10243 20125 55000

10-Day Weather Forecast

Almanac

Astronomy

Aug. 30, 2016 Rise Set
Actual Time
Civil Twilight
Nautical Twilight
Astronomical Twilight
Moon
Length of Visible Light
Length of Day
Tomorrow will be .
, % of the Moon is Illuminated

Today's Extremes

State Highs State Lows

Community

WunderPhotos

Upload Photos

1,935,875 photos uploaded!

WunderBlog® & News

Nearby

Air Quality

  Air Quality AQ Index Pollutant
Not available.

Snow Depth

Station Depth Elevation

Earthquake Activity

City Distance Mag. Time & Date
Minimum magnitude displayed is 2.5.

Coastal Water Temperatures

Place Temperature

Stations

Nearby Weather Stations

Station Location Temp. Windchill Dew Point Humidity Wind Precip. Elev Updated Type
                   

Watches & Warnings

There are currently no watches in effect.